sensor_id;sensor_type;location;lat;lon;timestamp;P1;durP1;ratioP1;P2;durP2;ratioP2
75645;SDS011;64237;52.438;13.240;2023-06-22T00:01:08;14.90;;;9.50;;
75645;SDS011;64237;52.438;13.240;2023-06-22T00:03:33;16.38;;;9.25;;
75645;SDS011;64237;52.438;13.240;2023-06-22T00:05:59;17.13;;;10.10;;
75645;SDS011;64237;52.438;13.240;2023-06-22T00:08:24;15.67;;;10.23;;
75645;SDS011;64237;52.438;13.240;2023-06-22T00:10:49;15.63;;;9.65;;
75645;SDS011;64237;52.438;13.240;2023-06-22T00:13:15;15.38;;;9.65;;
75645;SDS011;64237;52.438;13.240;2023-06-22T00:15:42;14.30;;;9.15;;
75645;SDS011;64237;52.438;13.240;2023-06-22T00:18:08;15.32;;;9.05;;
75645;SDS011;64237;52.438;13.240;2023-06-22T00:20:34;15.63;;;10.13;;
75645;SDS011;64237;52.438;13.240;2023-06-22T00:23:02;14.52;;;9.13;;
75645;SDS011;64237;52.438;13.240;2023-06-22T00:25:35;17.90;;;10.35;;
75645;SDS011;64237;52.438;13.240;2023-06-22T00:28:02;15.07;;;9.98;;
75645;SDS011;64237;52.438;13.240;2023-06-22T00:30:28;14.23;;;9.23;;
75645;SDS011;64237;52.438;13.240;2023-06-22T00:32:54;14.70;;;9.40;;
75645;SDS011;64237;52.438;13.240;2023-06-22T00:35:19;15.13;;;9.57;;
75645;SDS011;64237;52.438;13.240;2023-06-22T00:37:44;15.13;;;9.67;;
75645;SDS011;64237;52.438;13.240;2023-06-22T00:40:10;14.47;;;9.80;;
75645;SDS011;64237;52.438;13.240;2023-06-22T00:42:37;16.08;;;10.02;;
75645;SDS011;64237;52.438;13.240;2023-06-22T00:45:04;15.75;;;9.23;;
75645;SDS011;64237;52.438;13.240;2023-06-22T00:47:30;13.90;;;9.40;;
75645;SDS011;64237;52.438;13.240;2023-06-22T00:49:55;14.90;;;9.53;;
75645;SDS011;64237;52.438;13.240;2023-06-22T00:52:22;14.10;;;9.80;;
75645;SDS011;64237;52.438;13.240;2023-06-22T00:54:52;15.48;;;9.95;;
75645;SDS011;64237;52.438;13.240;2023-06-22T00:57:18;14.57;;;9.52;;
75645;SDS011;64237;52.438;13.240;2023-06-22T00:59:45;16.85;;;9.98;;
75645;SDS011;64237;52.438;13.240;2023-06-22T01:02:12;13.43;;;9.15;;
75645;SDS011;64237;52.438;13.240;2023-06-22T01:04:38;14.45;;;9.27;;
75645;SDS011;64237;52.438;13.240;2023-06-22T01:12:21;15.77;;;9.63;;
75645;SDS011;64237;52.438;13.240;2023-06-22T01:14:50;13.63;;;8.65;;
75645;SDS011;64237;52.438;13.240;2023-06-22T01:17:21;14.85;;;9.45;;
75645;SDS011;64237;52.438;13.240;2023-06-22T01:19:50;16.42;;;9.30;;
75645;SDS011;64237;52.438;13.240;2023-06-22T01:22:22;13.77;;;8.90;;
75645;SDS011;64237;52.438;13.240;2023-06-22T01:30:54;14.43;;;9.13;;
75645;SDS011;64237;52.438;13.240;2023-06-22T01:33:28;14.45;;;9.05;;
75645;SDS011;64237;52.438;13.240;2023-06-22T01:35:55;21.42;;;9.50;;
75645;SDS011;64237;52.438;13.240;2023-06-22T01:38:21;13.98;;;9.27;;
75645;SDS011;64237;52.438;13.240;2023-06-22T01:40:47;15.77;;;9.88;;
75645;SDS011;64237;52.438;13.240;2023-06-22T01:43:13;14.80;;;9.48;;
75645;SDS011;64237;52.438;13.240;2023-06-22T01:45:39;15.00;;;9.20;;
75645;SDS011;64237;52.438;13.240;2023-06-22T01:48:05;16.00;;;9.48;;
75645;SDS011;64237;52.438;13.240;2023-06-22T01:50:31;13.75;;;8.80;;
75645;SDS011;64237;52.438;13.240;2023-06-22T01:52:57;13.55;;;9.15;;
75645;SDS011;64237;52.438;13.240;2023-06-22T01:55:22;13.30;;;8.70;;
75645;SDS011;64237;52.438;13.240;2023-06-22T01:57:47;15.02;;;8.82;;
75645;SDS011;64237;52.438;13.240;2023-06-22T02:00:14;13.20;;;8.90;;
75645;SDS011;64237;52.438;13.240;2023-06-22T02:05:19;15.13;;;8.55;;
75645;SDS011;64237;52.438;13.240;2023-06-22T02:07:46;14.52;;;8.75;;
75645;SDS011;64237;52.438;13.240;2023-06-22T02:10:15;13.30;;;9.15;;
75645;SDS011;64237;52.438;13.240;2023-06-22T02:12:44;12.80;;;8.52;;
75645;SDS011;64237;52.438;13.240;2023-06-22T02:15:11;12.48;;;8.20;;
75645;SDS011;64237;52.438;13.240;2023-06-22T02:17:38;16.02;;;9.55;;
75645;SDS011;64237;52.438;13.240;2023-06-22T02:20:04;13.02;;;8.77;;
75645;SDS011;64237;52.438;13.240;2023-06-22T02:22:32;15.45;;;9.13;;
75645;SDS011;64237;52.438;13.240;2023-06-22T02:24:58;13.88;;;8.75;;
75645;SDS011;64237;52.438;13.240;2023-06-22T02:27:23;14.30;;;8.77;;
75645;SDS011;64237;52.438;13.240;2023-06-22T02:29:48;16.38;;;10.10;;
75645;SDS011;64237;52.438;13.240;2023-06-22T02:32:14;14.47;;;9.20;;
75645;SDS011;64237;52.438;13.240;2023-06-22T02:34:42;13.63;;;8.75;;
75645;SDS011;64237;52.438;13.240;2023-06-22T02:37:07;13.02;;;8.80;;
75645;SDS011;64237;52.438;13.240;2023-06-22T02:39:35;13.50;;;8.50;;
75645;SDS011;64237;52.438;13.240;2023-06-22T02:42:02;13.68;;;8.38;;
75645;SDS011;64237;52.438;13.240;2023-06-22T02:44:27;12.30;;;8.07;;
75645;SDS011;64237;52.438;13.240;2023-06-22T02:46:52;15.00;;;8.57;;
75645;SDS011;64237;52.438;13.240;2023-06-22T02:49:19;14.30;;;8.65;;
75645;SDS011;64237;52.438;13.240;2023-06-22T02:51:46;14.13;;;8.85;;
75645;SDS011;64237;52.438;13.240;2023-06-22T02:54:12;13.70;;;8.50;;
75645;SDS011;64237;52.438;13.240;2023-06-22T02:56:38;14.27;;;9.15;;
75645;SDS011;64237;52.438;13.240;2023-06-22T02:59:05;13.88;;;8.85;;
75645;SDS011;64237;52.438;13.240;2023-06-22T03:01:31;12.73;;;8.40;;
75645;SDS011;64237;52.438;13.240;2023-06-22T03:04:03;12.00;;;8.30;;
75645;SDS011;64237;52.438;13.240;2023-06-22T03:06:29;16.92;;;8.63;;
75645;SDS011;64237;52.438;13.240;2023-06-22T03:08:58;16.45;;;9.02;;
75645;SDS011;64237;52.438;13.240;2023-06-22T03:11:25;15.23;;;8.23;;
75645;SDS011;64237;52.438;13.240;2023-06-22T03:13:50;13.40;;;8.10;;
75645;SDS011;64237;52.438;13.240;2023-06-22T03:16:17;14.40;;;8.93;;
75645;SDS011;64237;52.438;13.240;2023-06-22T03:18:42;14.50;;;8.85;;
75645;SDS011;64237;52.438;13.240;2023-06-22T03:21:08;12.95;;;8.55;;
75645;SDS011;64237;52.438;13.240;2023-06-22T03:23:33;13.43;;;8.80;;
75645;SDS011;64237;52.438;13.240;2023-06-22T03:25:58;13.25;;;8.27;;
75645;SDS011;64237;52.438;13.240;2023-06-22T03:28:24;14.23;;;9.00;;
75645;SDS011;64237;52.438;13.240;2023-06-22T03:30:49;13.73;;;8.95;;
75645;SDS011;64237;52.438;13.240;2023-06-22T03:33:14;13.23;;;8.50;;
75645;SDS011;64237;52.438;13.240;2023-06-22T03:35:40;13.30;;;8.83;;
75645;SDS011;64237;52.438;13.240;2023-06-22T03:38:05;14.57;;;9.43;;
75645;SDS011;64237;52.438;13.240;2023-06-22T03:40:30;15.23;;;8.85;;
75645;SDS011;64237;52.438;13.240;2023-06-22T03:42:56;14.00;;;8.85;;
75645;SDS011;64237;52.438;13.240;2023-06-22T03:45:21;15.23;;;9.37;;
75645;SDS011;64237;52.438;13.240;2023-06-22T03:47:46;14.45;;;9.00;;
75645;SDS011;64237;52.438;13.240;2023-06-22T03:50:12;13.93;;;8.93;;
75645;SDS011;64237;52.438;13.240;2023-06-22T03:52:38;13.25;;;9.20;;
75645;SDS011;64237;52.438;13.240;2023-06-22T03:55:04;12.43;;;8.18;;
75645;SDS011;64237;52.438;13.240;2023-06-22T03:57:30;13.10;;;8.68;;
75645;SDS011;64237;52.438;13.240;2023-06-22T03:59:56;14.90;;;8.73;;
75645;SDS011;64237;52.438;13.240;2023-06-22T04:02:22;13.15;;;8.75;;
75645;SDS011;64237;52.438;13.240;2023-06-22T04:04:48;14.32;;;9.15;;
75645;SDS011;64237;52.438;13.240;2023-06-22T04:07:13;14.73;;;8.03;;
75645;SDS011;64237;52.438;13.240;2023-06-22T04:09:39;14.80;;;8.65;;
75645;SDS011;64237;52.438;13.240;2023-06-22T04:12:04;14.38;;;8.55;;
75645;SDS011;64237;52.438;13.240;2023-06-22T04:14:30;12.90;;;8.38;;
75645;SDS011;64237;52.438;13.240;2023-06-22T04:16:55;11.67;;;7.83;;
75645;SDS011;64237;52.438;13.240;2023-06-22T04:19:21;12.82;;;8.52;;
75645;SDS011;64237;52.438;13.240;2023-06-22T04:21:46;14.02;;;8.15;;
75645;SDS011;64237;52.438;13.240;2023-06-22T04:24:13;12.57;;;7.63;;
75645;SDS011;64237;52.438;13.240;2023-06-22T04:26:39;15.50;;;8.02;;
75645;SDS011;64237;52.438;13.240;2023-06-22T04:29:06;11.88;;;7.28;;
75645;SDS011;64237;52.438;13.240;2023-06-22T04:31:33;11.70;;;7.15;;
75645;SDS011;64237;52.438;13.240;2023-06-22T04:34:01;14.90;;;7.68;;
75645;SDS011;64237;52.438;13.240;2023-06-22T04:36:34;14.52;;;7.13;;
75645;SDS011;64237;52.438;13.240;2023-06-22T04:39:11;11.63;;;6.63;;
75645;SDS011;64237;52.438;13.240;2023-06-22T04:41:37;10.38;;;6.57;;
75645;SDS011;64237;52.438;13.240;2023-06-22T04:46:38;11.35;;;6.95;;
75645;SDS011;64237;52.438;13.240;2023-06-22T04:49:05;13.98;;;7.50;;
75645;SDS011;64237;52.438;13.240;2023-06-22T04:51:36;10.77;;;7.10;;
75645;SDS011;64237;52.438;13.240;2023-06-22T04:54:04;11.55;;;7.05;;
75645;SDS011;64237;52.438;13.240;2023-06-22T04:56:31;14.05;;;7.15;;
75645;SDS011;64237;52.438;13.240;2023-06-22T04:58:56;13.00;;;7.03;;
75645;SDS011;64237;52.438;13.240;2023-06-22T05:01:22;11.88;;;6.53;;
75645;SDS011;64237;52.438;13.240;2023-06-22T05:03:48;14.02;;;6.72;;
75645;SDS011;64237;52.438;13.240;2023-06-22T05:06:14;11.18;;;6.10;;
75645;SDS011;64237;52.438;13.240;2023-06-22T05:08:40;10.40;;;6.25;;
75645;SDS011;64237;52.438;13.240;2023-06-22T05:11:05;11.48;;;6.35;;
75645;SDS011;64237;52.438;13.240;2023-06-22T05:13:31;10.43;;;6.70;;
75645;SDS011;64237;52.438;13.240;2023-06-22T05:16:00;10.82;;;5.93;;
75645;SDS011;64237;52.438;13.240;2023-06-22T05:18:28;10.05;;;6.03;;
75645;SDS011;64237;52.438;13.240;2023-06-22T05:20:54;10.27;;;5.50;;
75645;SDS011;64237;52.438;13.240;2023-06-22T05:23:20;10.43;;;5.82;;
75645;SDS011;64237;52.438;13.240;2023-06-22T05:25:45;9.25;;;5.20;;
75645;SDS011;64237;52.438;13.240;2023-06-22T05:28:11;8.75;;;4.80;;
75645;SDS011;64237;52.438;13.240;2023-06-22T05:30:37;8.07;;;4.80;;
75645;SDS011;64237;52.438;13.240;2023-06-22T05:33:03;9.25;;;5.05;;
75645;SDS011;64237;52.438;13.240;2023-06-22T05:35:28;11.00;;;5.22;;
75645;SDS011;64237;52.438;13.240;2023-06-22T05:37:54;9.82;;;4.78;;
75645;SDS011;64237;52.438;13.240;2023-06-22T05:40:20;9.38;;;4.93;;
75645;SDS011;64237;52.438;13.240;2023-06-22T05:42:45;8.73;;;4.47;;
75645;SDS011;64237;52.438;13.240;2023-06-22T05:45:11;10.27;;;4.63;;
75645;SDS011;64237;52.438;13.240;2023-06-22T05:47:36;9.23;;;4.80;;
75645;SDS011;64237;52.438;13.240;2023-06-22T05:50:01;9.20;;;4.57;;
75645;SDS011;64237;52.438;13.240;2023-06-22T05:52:31;7.80;;;4.90;;
75645;SDS011;64237;52.438;13.240;2023-06-22T05:54:56;8.20;;;4.73;;
75645;SDS011;64237;52.438;13.240;2023-06-22T05:57:22;8.02;;;4.60;;
75645;SDS011;64237;52.438;13.240;2023-06-22T05:59:47;9.43;;;4.63;;
75645;SDS011;64237;52.438;13.240;2023-06-22T06:02:12;9.27;;;4.50;;
75645;SDS011;64237;52.438;13.240;2023-06-22T06:04:38;8.75;;;4.40;;
75645;SDS011;64237;52.438;13.240;2023-06-22T06:07:03;7.90;;;4.72;;
75645;SDS011;64237;52.438;13.240;2023-06-22T06:09:28;10.88;;;4.68;;
75645;SDS011;64237;52.438;13.240;2023-06-22T06:11:54;10.43;;;5.10;;
75645;SDS011;64237;52.438;13.240;2023-06-22T06:14:19;9.43;;;5.10;;
75645;SDS011;64237;52.438;13.240;2023-06-22T06:16:45;9.75;;;4.88;;
75645;SDS011;64237;52.438;13.240;2023-06-22T06:19:10;11.77;;;5.07;;
75645;SDS011;64237;52.438;13.240;2023-06-22T06:21:36;9.75;;;4.55;;
75645;SDS011;64237;52.438;13.240;2023-06-22T06:24:01;8.30;;;4.80;;
75645;SDS011;64237;52.438;13.240;2023-06-22T06:26:27;8.25;;;4.32;;
75645;SDS011;64237;52.438;13.240;2023-06-22T06:28:57;8.07;;;4.15;;
75645;SDS011;64237;52.438;13.240;2023-06-22T06:31:23;9.75;;;4.78;;
75645;SDS011;64237;52.438;13.240;2023-06-22T06:33:49;8.25;;;3.97;;
75645;SDS011;64237;52.438;13.240;2023-06-22T06:36:14;7.03;;;3.90;;
75645;SDS011;64237;52.438;13.240;2023-06-22T06:38:40;7.53;;;4.15;;
75645;SDS011;64237;52.438;13.240;2023-06-22T06:41:05;7.43;;;3.90;;
75645;SDS011;64237;52.438;13.240;2023-06-22T06:43:31;6.80;;;3.67;;
75645;SDS011;64237;52.438;13.240;2023-06-22T06:45:56;6.70;;;3.90;;
75645;SDS011;64237;52.438;13.240;2023-06-22T06:48:21;8.60;;;3.78;;
75645;SDS011;64237;52.438;13.240;2023-06-22T06:50:47;8.68;;;3.72;;
75645;SDS011;64237;52.438;13.240;2023-06-22T06:53:12;7.72;;;3.50;;
75645;SDS011;64237;52.438;13.240;2023-06-22T06:55:38;6.68;;;3.15;;
75645;SDS011;64237;52.438;13.240;2023-06-22T06:58:03;6.80;;;3.10;;
75645;SDS011;64237;52.438;13.240;2023-06-22T07:00:32;6.35;;;3.35;;
75645;SDS011;64237;52.438;13.240;2023-06-22T07:02:58;6.60;;;3.20;;
75645;SDS011;64237;52.438;13.240;2023-06-22T07:05:23;5.80;;;3.03;;
75645;SDS011;64237;52.438;13.240;2023-06-22T07:07:48;7.22;;;3.10;;
75645;SDS011;64237;52.438;13.240;2023-06-22T07:10:14;6.50;;;3.30;;
75645;SDS011;64237;52.438;13.240;2023-06-22T07:12:40;7.47;;;3.72;;
75645;SDS011;64237;52.438;13.240;2023-06-22T07:15:06;6.47;;;3.40;;
75645;SDS011;64237;52.438;13.240;2023-06-22T07:17:33;6.10;;;3.00;;
75645;SDS011;64237;52.438;13.240;2023-06-22T07:19:59;6.18;;;2.95;;
75645;SDS011;64237;52.438;13.240;2023-06-22T07:22:24;5.57;;;2.47;;
75645;SDS011;64237;52.438;13.240;2023-06-22T07:24:50;5.47;;;3.08;;
75645;SDS011;64237;52.438;13.240;2023-06-22T07:27:16;7.65;;;2.88;;
75645;SDS011;64237;52.438;13.240;2023-06-22T07:29:44;5.75;;;2.50;;
75645;SDS011;64237;52.438;13.240;2023-06-22T07:32:10;12.00;;;2.80;;
75645;SDS011;64237;52.438;13.240;2023-06-22T07:34:35;6.10;;;2.60;;
75645;SDS011;64237;52.438;13.240;2023-06-22T07:37:01;6.50;;;2.80;;
75645;SDS011;64237;52.438;13.240;2023-06-22T07:39:26;5.85;;;2.65;;
75645;SDS011;64237;52.438;13.240;2023-06-22T07:41:53;6.75;;;2.58;;
75645;SDS011;64237;52.438;13.240;2023-06-22T07:44:18;5.28;;;2.42;;
75645;SDS011;64237;52.438;13.240;2023-06-22T07:46:43;3.67;;;2.03;;
75645;SDS011;64237;52.438;13.240;2023-06-22T07:49:09;6.90;;;2.33;;
75645;SDS011;64237;52.438;13.240;2023-06-22T07:51:34;4.85;;;2.33;;
75645;SDS011;64237;52.438;13.240;2023-06-22T07:54:00;5.00;;;2.33;;
75645;SDS011;64237;52.438;13.240;2023-06-22T07:56:25;5.07;;;2.40;;
75645;SDS011;64237;52.438;13.240;2023-06-22T07:58:50;4.70;;;2.20;;
75645;SDS011;64237;52.438;13.240;2023-06-22T08:01:16;6.47;;;2.67;;
75645;SDS011;64237;52.438;13.240;2023-06-22T08:03:42;5.22;;;2.22;;
75645;SDS011;64237;52.438;13.240;2023-06-22T08:06:08;5.63;;;2.30;;
75645;SDS011;64237;52.438;13.240;2023-06-22T08:08:37;4.70;;;2.13;;
75645;SDS011;64237;52.438;13.240;2023-06-22T08:11:03;7.88;;;2.08;;
75645;SDS011;64237;52.438;13.240;2023-06-22T08:13:29;6.70;;;2.30;;
75645;SDS011;64237;52.438;13.240;2023-06-22T08:15:54;5.93;;;2.30;;
75645;SDS011;64237;52.438;13.240;2023-06-22T08:18:20;5.35;;;2.30;;
75645;SDS011;64237;52.438;13.240;2023-06-22T08:20:45;4.95;;;2.00;;
75645;SDS011;64237;52.438;13.240;2023-06-22T08:23:10;4.45;;;2.08;;
75645;SDS011;64237;52.438;13.240;2023-06-22T08:25:36;4.80;;;2.10;;
75645;SDS011;64237;52.438;13.240;2023-06-22T08:28:01;7.88;;;2.17;;
75645;SDS011;64237;52.438;13.240;2023-06-22T08:30:28;5.53;;;2.22;;
75645;SDS011;64237;52.438;13.240;2023-06-22T08:32:54;4.55;;;2.35;;
75645;SDS011;64237;52.438;13.240;2023-06-22T08:35:20;3.92;;;2.15;;
75645;SDS011;64237;52.438;13.240;2023-06-22T08:37:47;6.07;;;2.50;;
75645;SDS011;64237;52.438;13.240;2023-06-22T08:40:16;5.32;;;2.40;;
75645;SDS011;64237;52.438;13.240;2023-06-22T08:42:42;4.75;;;2.25;;
75645;SDS011;64237;52.438;13.240;2023-06-22T08:45:08;5.60;;;2.30;;
75645;SDS011;64237;52.438;13.240;2023-06-22T08:47:34;4.70;;;2.20;;
75645;SDS011;64237;52.438;13.240;2023-06-22T08:49:59;6.53;;;2.43;;
75645;SDS011;64237;52.438;13.240;2023-06-22T08:52:26;4.10;;;2.20;;
75645;SDS011;64237;52.438;13.240;2023-06-22T08:54:52;4.15;;;2.00;;
75645;SDS011;64237;52.438;13.240;2023-06-22T08:57:17;3.70;;;1.97;;
75645;SDS011;64237;52.438;13.240;2023-06-22T08:59:43;4.57;;;2.13;;
75645;SDS011;64237;52.438;13.240;2023-06-22T09:02:08;4.60;;;2.10;;
75645;SDS011;64237;52.438;13.240;2023-06-22T09:04:34;5.82;;;2.05;;
75645;SDS011;64237;52.438;13.240;2023-06-22T09:07:02;7.03;;;2.58;;
75645;SDS011;64237;52.438;13.240;2023-06-22T09:09:28;7.90;;;2.10;;
75645;SDS011;64237;52.438;13.240;2023-06-22T09:11:53;4.20;;;2.22;;
75645;SDS011;64237;52.438;13.240;2023-06-22T09:14:18;4.65;;;2.28;;
75645;SDS011;64237;52.438;13.240;2023-06-22T09:16:44;5.28;;;2.25;;
75645;SDS011;64237;52.438;13.240;2023-06-22T09:19:09;5.75;;;2.28;;
75645;SDS011;64237;52.438;13.240;2023-06-22T09:21:35;5.07;;;2.30;;
75645;SDS011;64237;52.438;13.240;2023-06-22T09:24:01;5.60;;;2.47;;
75645;SDS011;64237;52.438;13.240;2023-06-22T09:26:26;5.75;;;2.47;;
75645;SDS011;64237;52.438;13.240;2023-06-22T09:28:51;5.53;;;2.58;;
75645;SDS011;64237;52.438;13.240;2023-06-22T09:31:17;6.35;;;2.97;;
75645;SDS011;64237;52.438;13.240;2023-06-22T09:33:42;7.18;;;2.97;;
75645;SDS011;64237;52.438;13.240;2023-06-22T09:36:08;8.48;;;2.60;;
75645;SDS011;64237;52.438;13.240;2023-06-22T09:38:37;5.50;;;2.70;;
75645;SDS011;64237;52.438;13.240;2023-06-22T09:41:03;5.30;;;2.67;;
75645;SDS011;64237;52.438;13.240;2023-06-22T09:43:29;6.18;;;2.85;;
75645;SDS011;64237;52.438;13.240;2023-06-22T09:45:56;5.05;;;2.47;;
75645;SDS011;64237;52.438;13.240;2023-06-22T09:48:21;5.13;;;2.90;;
75645;SDS011;64237;52.438;13.240;2023-06-22T09:50:47;6.40;;;2.42;;
75645;SDS011;64237;52.438;13.240;2023-06-22T09:53:12;5.75;;;2.95;;
75645;SDS011;64237;52.438;13.240;2023-06-22T09:55:38;6.72;;;2.90;;
75645;SDS011;64237;52.438;13.240;2023-06-22T09:58:03;6.03;;;2.90;;
75645;SDS011;64237;52.438;13.240;2023-06-22T10:00:28;5.67;;;2.63;;
75645;SDS011;64237;52.438;13.240;2023-06-22T10:02:53;6.13;;;2.97;;
75645;SDS011;64237;52.438;13.240;2023-06-22T10:05:20;5.55;;;3.00;;
75645;SDS011;64237;52.438;13.240;2023-06-22T10:07:46;6.13;;;2.75;;
75645;SDS011;64237;52.438;13.240;2023-06-22T10:10:11;5.87;;;2.90;;
75645;SDS011;64237;52.438;13.240;2023-06-22T10:12:41;7.00;;;2.80;;
75645;SDS011;64237;52.438;13.240;2023-06-22T10:15:08;5.63;;;2.90;;
75645;SDS011;64237;52.438;13.240;2023-06-22T10:17:34;8.70;;;2.90;;
75645;SDS011;64237;52.438;13.240;2023-06-22T10:20:00;7.03;;;2.93;;
75645;SDS011;64237;52.438;13.240;2023-06-22T10:22:26;6.47;;;3.08;;
75645;SDS011;64237;52.438;13.240;2023-06-22T10:24:51;9.18;;;3.33;;
75645;SDS011;64237;52.438;13.240;2023-06-22T10:27:17;6.20;;;2.97;;
75645;SDS011;64237;52.438;13.240;2023-06-22T10:29:42;6.25;;;2.70;;
75645;SDS011;64237;52.438;13.240;2023-06-22T10:32:08;4.90;;;2.60;;
75645;SDS011;64237;52.438;13.240;2023-06-22T10:34:33;5.28;;;2.70;;
75645;SDS011;64237;52.438;13.240;2023-06-22T10:36:59;6.53;;;3.00;;
75645;SDS011;64237;52.438;13.240;2023-06-22T10:39:24;5.32;;;2.97;;
75645;SDS011;64237;52.438;13.240;2023-06-22T10:41:52;4.87;;;2.60;;
75645;SDS011;64237;52.438;13.240;2023-06-22T10:44:17;6.43;;;2.90;;
75645;SDS011;64237;52.438;13.240;2023-06-22T10:46:43;9.57;;;2.80;;
75645;SDS011;64237;52.438;13.240;2023-06-22T10:49:08;7.20;;;2.75;;
75645;SDS011;64237;52.438;13.240;2023-06-22T10:51:34;8.60;;;3.20;;
75645;SDS011;64237;52.438;13.240;2023-06-22T10:54:02;6.90;;;3.15;;
75645;SDS011;64237;52.438;13.240;2023-06-22T10:56:29;7.07;;;2.80;;
75645;SDS011;64237;52.438;13.240;2023-06-22T10:58:54;5.47;;;2.72;;
75645;SDS011;64237;52.438;13.240;2023-06-22T11:01:20;7.47;;;3.10;;
75645;SDS011;64237;52.438;13.240;2023-06-22T11:03:45;6.45;;;2.83;;
75645;SDS011;64237;52.438;13.240;2023-06-22T11:06:11;6.25;;;3.10;;
75645;SDS011;64237;52.438;13.240;2023-06-22T11:08:36;8.83;;;2.83;;
75645;SDS011;64237;52.438;13.240;2023-06-22T11:11:01;5.90;;;3.30;;
75645;SDS011;64237;52.438;13.240;2023-06-22T11:13:27;6.05;;;2.85;;
75645;SDS011;64237;52.438;13.240;2023-06-22T11:15:52;5.23;;;2.87;;
75645;SDS011;64237;52.438;13.240;2023-06-22T11:18:17;5.75;;;3.08;;
75645;SDS011;64237;52.438;13.240;2023-06-22T11:20:43;5.00;;;2.88;;
75645;SDS011;64237;52.438;13.240;2023-06-22T11:23:11;5.80;;;2.67;;
75645;SDS011;64237;52.438;13.240;2023-06-22T11:25:37;4.90;;;2.80;;
75645;SDS011;64237;52.438;13.240;2023-06-22T11:28:03;6.65;;;3.38;;
75645;SDS011;64237;52.438;13.240;2023-06-22T11:30:29;5.45;;;2.85;;
75645;SDS011;64237;52.438;13.240;2023-06-22T11:32:55;6.72;;;2.75;;
75645;SDS011;64237;52.438;13.240;2023-06-22T11:35:21;6.18;;;2.83;;
75645;SDS011;64237;52.438;13.240;2023-06-22T11:37:47;5.80;;;3.30;;
75645;SDS011;64237;52.438;13.240;2023-06-22T11:40:15;5.53;;;3.07;;
75645;SDS011;64237;52.438;13.240;2023-06-22T11:42:48;6.53;;;2.80;;
75645;SDS011;64237;52.438;13.240;2023-06-22T11:45:13;5.47;;;3.30;;
75645;SDS011;64237;52.438;13.240;2023-06-22T11:47:39;6.10;;;3.03;;
75645;SDS011;64237;52.438;13.240;2023-06-22T11:50:04;6.03;;;3.00;;
75645;SDS011;64237;52.438;13.240;2023-06-22T11:52:33;5.50;;;3.10;;
75645;SDS011;64237;52.438;13.240;2023-06-22T11:55:07;6.80;;;3.03;;
75645;SDS011;64237;52.438;13.240;2023-06-22T11:57:53;6.00;;;3.13;;
75645;SDS011;64237;52.438;13.240;2023-06-22T12:00:23;7.18;;;3.45;;
75645;SDS011;64237;52.438;13.240;2023-06-22T12:02:49;5.10;;;2.88;;
75645;SDS011;64237;52.438;13.240;2023-06-22T12:05:16;6.20;;;3.08;;
75645;SDS011;64237;52.438;13.240;2023-06-22T12:07:43;5.60;;;3.10;;
75645;SDS011;64237;52.438;13.240;2023-06-22T12:10:08;6.13;;;2.80;;
75645;SDS011;64237;52.438;13.240;2023-06-22T12:12:34;6.53;;;3.00;;
75645;SDS011;64237;52.438;13.240;2023-06-22T12:14:59;5.80;;;3.10;;
75645;SDS011;64237;52.438;13.240;2023-06-22T12:17:28;5.25;;;3.05;;
75645;SDS011;64237;52.438;13.240;2023-06-22T12:19:54;6.50;;;3.15;;
75645;SDS011;64237;52.438;13.240;2023-06-22T12:22:19;6.33;;;2.90;;
75645;SDS011;64237;52.438;13.240;2023-06-22T12:24:44;5.40;;;3.37;;
75645;SDS011;64237;52.438;13.240;2023-06-22T12:27:09;4.90;;;2.70;;
75645;SDS011;64237;52.438;13.240;2023-06-22T12:29:35;5.60;;;3.00;;
75645;SDS011;64237;52.438;13.240;2023-06-22T12:32:00;7.72;;;2.92;;
75645;SDS011;64237;52.438;13.240;2023-06-22T12:34:26;8.10;;;3.27;;
75645;SDS011;64237;52.438;13.240;2023-06-22T12:36:54;5.25;;;2.95;;
75645;SDS011;64237;52.438;13.240;2023-06-22T12:39:25;5.57;;;3.20;;
75645;SDS011;64237;52.438;13.240;2023-06-22T12:41:51;7.07;;;3.42;;
75645;SDS011;64237;52.438;13.240;2023-06-22T12:44:16;6.40;;;3.00;;
75645;SDS011;64237;52.438;13.240;2023-06-22T12:46:42;6.07;;;2.95;;
75645;SDS011;64237;52.438;13.240;2023-06-22T12:49:07;5.35;;;3.20;;
75645;SDS011;64237;52.438;13.240;2023-06-22T12:51:32;5.68;;;3.28;;
75645;SDS011;64237;52.438;13.240;2023-06-22T12:53:58;6.32;;;3.47;;
75645;SDS011;64237;52.438;13.240;2023-06-22T12:56:24;7.68;;;3.22;;
75645;SDS011;64237;52.438;13.240;2023-06-22T12:58:55;5.15;;;3.00;;
75645;SDS011;64237;52.438;13.240;2023-06-22T13:01:22;5.53;;;3.20;;
75645;SDS011;64237;52.438;13.240;2023-06-22T13:03:47;7.85;;;3.35;;
75645;SDS011;64237;52.438;13.240;2023-06-22T13:06:13;7.73;;;3.30;;
75645;SDS011;64237;52.438;13.240;2023-06-22T13:08:38;6.05;;;2.85;;
75645;SDS011;64237;52.438;13.240;2023-06-22T13:11:04;5.90;;;3.30;;
75645;SDS011;64237;52.438;13.240;2023-06-22T13:13:29;6.87;;;3.40;;
75645;SDS011;64237;52.438;13.240;2023-06-22T13:15:54;5.47;;;3.13;;
75645;SDS011;64237;52.438;13.240;2023-06-22T13:18:22;6.55;;;3.85;;
75645;SDS011;64237;52.438;13.240;2023-06-22T13:20:48;5.70;;;3.08;;
75645;SDS011;64237;52.438;13.240;2023-06-22T13:23:13;8.47;;;2.87;;
75645;SDS011;64237;52.438;13.240;2023-06-22T13:25:38;6.97;;;3.38;;
75645;SDS011;64237;52.438;13.240;2023-06-22T13:28:04;6.13;;;3.55;;
75645;SDS011;64237;52.438;13.240;2023-06-22T13:30:32;7.13;;;3.60;;
75645;SDS011;64237;52.438;13.240;2023-06-22T13:32:57;8.93;;;3.30;;
75645;SDS011;64237;52.438;13.240;2023-06-22T13:35:23;6.17;;;3.17;;
75645;SDS011;64237;52.438;13.240;2023-06-22T13:37:48;7.43;;;3.53;;
75645;SDS011;64237;52.438;13.240;2023-06-22T13:40:14;7.65;;;3.90;;
75645;SDS011;64237;52.438;13.240;2023-06-22T13:42:39;7.22;;;3.22;;
75645;SDS011;64237;52.438;13.240;2023-06-22T13:45:08;6.72;;;3.30;;
75645;SDS011;64237;52.438;13.240;2023-06-22T13:47:34;6.80;;;3.05;;
75645;SDS011;64237;52.438;13.240;2023-06-22T13:49:59;7.87;;;3.33;;
75645;SDS011;64237;52.438;13.240;2023-06-22T13:52:24;6.30;;;3.40;;
75645;SDS011;64237;52.438;13.240;2023-06-22T13:54:50;6.68;;;3.30;;
75645;SDS011;64237;52.438;13.240;2023-06-22T13:57:15;6.93;;;3.58;;
75645;SDS011;64237;52.438;13.240;2023-06-22T13:59:40;7.03;;;3.42;;
75645;SDS011;64237;52.438;13.240;2023-06-22T14:02:09;5.93;;;3.43;;
75645;SDS011;64237;52.438;13.240;2023-06-22T14:04:34;6.65;;;3.30;;
75645;SDS011;64237;52.438;13.240;2023-06-22T14:06:59;11.60;;;3.70;;
75645;SDS011;64237;52.438;13.240;2023-06-22T14:09:25;8.77;;;3.80;;
75645;SDS011;64237;52.438;13.240;2023-06-22T14:11:54;6.30;;;3.45;;
75645;SDS011;64237;52.438;13.240;2023-06-22T14:14:20;6.07;;;3.47;;
75645;SDS011;64237;52.438;13.240;2023-06-22T14:16:46;5.40;;;3.30;;
75645;SDS011;64237;52.438;13.240;2023-06-22T14:19:11;6.45;;;3.50;;
75645;SDS011;64237;52.438;13.240;2023-06-22T14:21:37;6.72;;;3.97;;
75645;SDS011;64237;52.438;13.240;2023-06-22T14:24:02;7.30;;;3.28;;
75645;SDS011;64237;52.438;13.240;2023-06-22T14:26:31;7.22;;;3.83;;
75645;SDS011;64237;52.438;13.240;2023-06-22T14:28:56;8.23;;;3.80;;
75645;SDS011;64237;52.438;13.240;2023-06-22T14:31:24;7.57;;;3.50;;
75645;SDS011;64237;52.438;13.240;2023-06-22T14:33:50;6.57;;;3.67;;
75645;SDS011;64237;52.438;13.240;2023-06-22T14:36:15;6.53;;;3.50;;
75645;SDS011;64237;52.438;13.240;2023-06-22T14:38:42;7.75;;;3.50;;